sensor_id;sensor_type;location;lat;lon;timestamp;P1;durP1;ratioP1;P2;durP2;ratioP2
44850;SDS011;30583;48.714;9.386;2022-07-06T00:00:42;4.53;;;2.03;;
44850;SDS011;30583;48.714;9.386;2022-07-06T00:03:08;3.28;;;1.90;;
44850;SDS011;30583;48.714;9.386;2022-07-06T00:05:33;5.80;;;2.08;;
44850;SDS011;30583;48.714;9.386;2022-07-06T00:07:59;5.40;;;2.13;;
44850;SDS011;30583;48.714;9.386;2022-07-06T00:10:24;3.35;;;2.00;;
44850;SDS011;30583;48.714;9.386;2022-07-06T00:12:50;6.63;;;1.88;;
44850;SDS011;30583;48.714;9.386;2022-07-06T00:15:16;4.40;;;1.67;;
44850;SDS011;30583;48.714;9.386;2022-07-06T00:17:41;3.97;;;1.65;;
44850;SDS011;30583;48.714;9.386;2022-07-06T00:20:07;5.20;;;1.98;;
44850;SDS011;30583;48.714;9.386;2022-07-06T00:22:33;3.13;;;1.80;;
44850;SDS011;30583;48.714;9.386;2022-07-06T00:24:59;5.72;;;1.98;;
44850;SDS011;30583;48.714;9.386;2022-07-06T00:27:24;5.40;;;2.15;;
44850;SDS011;30583;48.714;9.386;2022-07-06T00:29:50;3.85;;;2.00;;
44850;SDS011;30583;48.714;9.386;2022-07-06T00:32:15;3.42;;;1.85;;
44850;SDS011;30583;48.714;9.386;2022-07-06T00:34:41;5.82;;;1.83;;
44850;SDS011;30583;48.714;9.386;2022-07-06T00:37:07;3.83;;;1.98;;
44850;SDS011;30583;48.714;9.386;2022-07-06T00:39:33;3.53;;;2.10;;
44850;SDS011;30583;48.714;9.386;2022-07-06T00:41:59;5.60;;;2.22;;
44850;SDS011;30583;48.714;9.386;2022-07-06T00:44:25;6.18;;;2.00;;
44850;SDS011;30583;48.714;9.386;2022-07-06T00:46:50;4.10;;;1.98;;
44850;SDS011;30583;48.714;9.386;2022-07-06T00:49:16;3.42;;;1.85;;
44850;SDS011;30583;48.714;9.386;2022-07-06T00:54:26;4.47;;;1.95;;
44850;SDS011;30583;48.714;9.386;2022-07-06T00:56:55;6.00;;;1.98;;
44850;SDS011;30583;48.714;9.386;2022-07-06T00:59:20;5.68;;;2.22;;
44850;SDS011;30583;48.714;9.386;2022-07-06T01:01:47;4.70;;;1.98;;
44850;SDS011;30583;48.714;9.386;2022-07-06T01:04:13;3.17;;;1.70;;
44850;SDS011;30583;48.714;9.386;2022-07-06T01:06:39;4.50;;;2.08;;
44850;SDS011;30583;48.714;9.386;2022-07-06T01:09:05;3.92;;;2.00;;
44850;SDS011;30583;48.714;9.386;2022-07-06T01:11:31;2.90;;;1.90;;
44850;SDS011;30583;48.714;9.386;2022-07-06T01:13:57;2.33;;;1.60;;
44850;SDS011;30583;48.714;9.386;2022-07-06T01:16:28;4.43;;;2.05;;
44850;SDS011;30583;48.714;9.386;2022-07-06T01:18:54;5.00;;;1.77;;
44850;SDS011;30583;48.714;9.386;2022-07-06T01:21:19;3.35;;;1.80;;
44850;SDS011;30583;48.714;9.386;2022-07-06T01:23:46;5.65;;;1.90;;
44850;SDS011;30583;48.714;9.386;2022-07-06T01:26:16;4.15;;;2.20;;
44850;SDS011;30583;48.714;9.386;2022-07-06T01:28:44;3.38;;;2.30;;
44850;SDS011;30583;48.714;9.386;2022-07-06T01:31:14;4.35;;;2.08;;
44850;SDS011;30583;48.714;9.386;2022-07-06T01:33:40;6.15;;;2.00;;
44850;SDS011;30583;48.714;9.386;2022-07-06T01:36:05;3.90;;;2.00;;
44850;SDS011;30583;48.714;9.386;2022-07-06T01:38:31;6.97;;;2.08;;
44850;SDS011;30583;48.714;9.386;2022-07-06T01:40:57;3.40;;;1.75;;
44850;SDS011;30583;48.714;9.386;2022-07-06T01:43:22;6.25;;;1.95;;
44850;SDS011;30583;48.714;9.386;2022-07-06T01:45:48;3.17;;;1.92;;
44850;SDS011;30583;48.714;9.386;2022-07-06T01:48:13;3.25;;;2.00;;
44850;SDS011;30583;48.714;9.386;2022-07-06T01:50:39;4.82;;;2.25;;
44850;SDS011;30583;48.714;9.386;2022-07-06T01:53:05;2.97;;;1.70;;
44850;SDS011;30583;48.714;9.386;2022-07-06T01:55:30;2.50;;;1.83;;
44850;SDS011;30583;48.714;9.386;2022-07-06T01:57:56;4.88;;;2.13;;
44850;SDS011;30583;48.714;9.386;2022-07-06T02:00:21;3.75;;;1.80;;
44850;SDS011;30583;48.714;9.386;2022-07-06T02:02:47;3.38;;;1.92;;
44850;SDS011;30583;48.714;9.386;2022-07-06T02:05:13;7.85;;;2.13;;
44850;SDS011;30583;48.714;9.386;2022-07-06T02:07:38;5.72;;;1.95;;
44850;SDS011;30583;48.714;9.386;2022-07-06T02:10:04;6.38;;;2.47;;
44850;SDS011;30583;48.714;9.386;2022-07-06T02:12:29;4.32;;;1.77;;
44850;SDS011;30583;48.714;9.386;2022-07-06T02:14:55;3.55;;;2.20;;
44850;SDS011;30583;48.714;9.386;2022-07-06T02:17:21;6.13;;;2.58;;
44850;SDS011;30583;48.714;9.386;2022-07-06T02:19:46;3.92;;;2.10;;
44850;SDS011;30583;48.714;9.386;2022-07-06T02:22:12;4.45;;;1.70;;
44850;SDS011;30583;48.714;9.386;2022-07-06T02:24:37;4.57;;;2.50;;
44850;SDS011;30583;48.714;9.386;2022-07-06T02:27:03;8.25;;;2.30;;
44850;SDS011;30583;48.714;9.386;2022-07-06T02:29:29;3.92;;;1.90;;
44850;SDS011;30583;48.714;9.386;2022-07-06T02:31:54;5.00;;;2.10;;
44850;SDS011;30583;48.714;9.386;2022-07-06T02:34:20;4.22;;;2.08;;
44850;SDS011;30583;48.714;9.386;2022-07-06T02:36:45;3.67;;;2.08;;
44850;SDS011;30583;48.714;9.386;2022-07-06T02:39:11;5.78;;;2.20;;
44850;SDS011;30583;48.714;9.386;2022-07-06T02:41:37;4.93;;;2.00;;
44850;SDS011;30583;48.714;9.386;2022-07-06T02:44:02;6.88;;;2.20;;
44850;SDS011;30583;48.714;9.386;2022-07-06T02:46:28;6.32;;;2.30;;
44850;SDS011;30583;48.714;9.386;2022-07-06T02:48:54;3.10;;;1.70;;
44850;SDS011;30583;48.714;9.386;2022-07-06T02:51:19;4.68;;;1.92;;
44850;SDS011;30583;48.714;9.386;2022-07-06T02:53:45;6.95;;;2.45;;
44850;SDS011;30583;48.714;9.386;2022-07-06T02:56:10;5.00;;;2.20;;
44850;SDS011;30583;48.714;9.386;2022-07-06T02:58:36;3.53;;;2.10;;
44850;SDS011;30583;48.714;9.386;2022-07-06T03:01:02;4.72;;;2.10;;
44850;SDS011;30583;48.714;9.386;2022-07-06T03:03:28;4.13;;;2.17;;
44850;SDS011;30583;48.714;9.386;2022-07-06T03:05:53;6.28;;;2.10;;
44850;SDS011;30583;48.714;9.386;2022-07-06T03:08:19;4.45;;;2.00;;
44850;SDS011;30583;48.714;9.386;2022-07-06T03:10:44;5.82;;;2.28;;
44850;SDS011;30583;48.714;9.386;2022-07-06T03:13:11;3.72;;;2.13;;
44850;SDS011;30583;48.714;9.386;2022-07-06T03:15:36;5.75;;;2.50;;
44850;SDS011;30583;48.714;9.386;2022-07-06T03:18:02;4.93;;;2.63;;
44850;SDS011;30583;48.714;9.386;2022-07-06T03:20:27;5.88;;;2.72;;
44850;SDS011;30583;48.714;9.386;2022-07-06T03:22:53;5.03;;;2.70;;
44850;SDS011;30583;48.714;9.386;2022-07-06T03:25:19;4.55;;;2.15;;
44850;SDS011;30583;48.714;9.386;2022-07-06T03:27:44;6.43;;;2.80;;
44850;SDS011;30583;48.714;9.386;2022-07-06T03:30:10;4.45;;;2.30;;
44850;SDS011;30583;48.714;9.386;2022-07-06T03:32:36;5.18;;;2.35;;
44850;SDS011;30583;48.714;9.386;2022-07-06T03:35:02;4.20;;;2.10;;
44850;SDS011;30583;48.714;9.386;2022-07-06T03:37:28;5.45;;;2.60;;
44850;SDS011;30583;48.714;9.386;2022-07-06T03:39:53;3.53;;;2.15;;
44850;SDS011;30583;48.714;9.386;2022-07-06T03:42:19;3.72;;;2.17;;
44850;SDS011;30583;48.714;9.386;2022-07-06T03:44:44;7.78;;;3.03;;
44850;SDS011;30583;48.714;9.386;2022-07-06T03:47:10;4.40;;;2.17;;
44850;SDS011;30583;48.714;9.386;2022-07-06T03:49:35;4.30;;;2.13;;
44850;SDS011;30583;48.714;9.386;2022-07-06T03:52:01;3.97;;;2.05;;
44850;SDS011;30583;48.714;9.386;2022-07-06T03:54:27;7.22;;;2.70;;
44850;SDS011;30583;48.714;9.386;2022-07-06T03:56:53;4.60;;;2.50;;
44850;SDS011;30583;48.714;9.386;2022-07-06T03:59:19;3.40;;;2.13;;
44850;SDS011;30583;48.714;9.386;2022-07-06T04:01:44;6.20;;;2.15;;
44850;SDS011;30583;48.714;9.386;2022-07-06T04:04:10;6.30;;;2.58;;
44850;SDS011;30583;48.714;9.386;2022-07-06T04:06:35;4.70;;;2.08;;
44850;SDS011;30583;48.714;9.386;2022-07-06T04:09:01;4.65;;;2.30;;
44850;SDS011;30583;48.714;9.386;2022-07-06T04:11:27;4.07;;;1.95;;
44850;SDS011;30583;48.714;9.386;2022-07-06T04:13:52;4.07;;;2.42;;
44850;SDS011;30583;48.714;9.386;2022-07-06T04:16:19;4.35;;;2.13;;
44850;SDS011;30583;48.714;9.386;2022-07-06T04:18:45;4.80;;;2.40;;
44850;SDS011;30583;48.714;9.386;2022-07-06T04:21:11;7.60;;;2.30;;
44850;SDS011;30583;48.714;9.386;2022-07-06T04:23:36;1.88;;;1.00;;
44850;SDS011;30583;48.714;9.386;2022-07-06T04:26:02;2.83;;;1.52;;
44850;SDS011;30583;48.714;9.386;2022-07-06T04:28:28;3.90;;;2.13;;
44850;SDS011;30583;48.714;9.386;2022-07-06T04:30:53;5.07;;;1.90;;
44850;SDS011;30583;48.714;9.386;2022-07-06T04:33:19;3.30;;;2.00;;
44850;SDS011;30583;48.714;9.386;2022-07-06T04:35:48;6.85;;;2.22;;
44850;SDS011;30583;48.714;9.386;2022-07-06T04:38:17;3.85;;;2.17;;
44850;SDS011;30583;48.714;9.386;2022-07-06T04:40:43;3.80;;;2.13;;
44850;SDS011;30583;48.714;9.386;2022-07-06T04:43:11;7.53;;;2.53;;
44850;SDS011;30583;48.714;9.386;2022-07-06T04:45:37;3.58;;;2.10;;
44850;SDS011;30583;48.714;9.386;2022-07-06T04:48:02;11.30;;;3.25;;
44850;SDS011;30583;48.714;9.386;2022-07-06T04:50:28;54.05;;;16.52;;
44850;SDS011;30583;48.714;9.386;2022-07-06T04:52:54;35.50;;;14.30;;
44850;SDS011;30583;48.714;9.386;2022-07-06T04:55:20;45.17;;;14.38;;
44850;SDS011;30583;48.714;9.386;2022-07-06T04:57:45;45.38;;;15.93;;
44850;SDS011;30583;48.714;9.386;2022-07-06T05:00:11;38.47;;;12.02;;
44850;SDS011;30583;48.714;9.386;2022-07-06T05:02:37;42.65;;;13.13;;
44850;SDS011;30583;48.714;9.386;2022-07-06T05:05:03;34.80;;;11.05;;
44850;SDS011;30583;48.714;9.386;2022-07-06T05:07:29;24.92;;;8.40;;
44850;SDS011;30583;48.714;9.386;2022-07-06T05:09:57;17.10;;;6.30;;
44850;SDS011;30583;48.714;9.386;2022-07-06T05:12:22;7.38;;;2.95;;
44850;SDS011;30583;48.714;9.386;2022-07-06T05:14:48;6.57;;;2.67;;
44850;SDS011;30583;48.714;9.386;2022-07-06T05:17:14;8.88;;;2.60;;
44850;SDS011;30583;48.714;9.386;2022-07-06T05:19:40;5.38;;;2.50;;
44850;SDS011;30583;48.714;9.386;2022-07-06T05:22:05;9.82;;;2.70;;
44850;SDS011;30583;48.714;9.386;2022-07-06T05:24:31;4.65;;;2.78;;
44850;SDS011;30583;48.714;9.386;2022-07-06T05:26:56;4.65;;;2.60;;
44850;SDS011;30583;48.714;9.386;2022-07-06T05:29:22;5.30;;;2.40;;
44850;SDS011;30583;48.714;9.386;2022-07-06T05:31:47;5.32;;;2.58;;
44850;SDS011;30583;48.714;9.386;2022-07-06T05:34:13;5.07;;;2.78;;
44850;SDS011;30583;48.714;9.386;2022-07-06T05:36:39;6.07;;;2.50;;
44850;SDS011;30583;48.714;9.386;2022-07-06T05:39:04;3.92;;;2.50;;
44850;SDS011;30583;48.714;9.386;2022-07-06T05:41:30;8.93;;;2.65;;
44850;SDS011;30583;48.714;9.386;2022-07-06T05:44:01;5.75;;;2.70;;
44850;SDS011;30583;48.714;9.386;2022-07-06T05:46:27;4.78;;;3.28;;
44850;SDS011;30583;48.714;9.386;2022-07-06T05:48:53;7.38;;;3.30;;
44850;SDS011;30583;48.714;9.386;2022-07-06T05:54:02;9.35;;;5.82;;
44850;SDS011;30583;48.714;9.386;2022-07-06T05:56:28;7.22;;;3.83;;
44850;SDS011;30583;48.714;9.386;2022-07-06T05:58:54;6.88;;;3.05;;
44850;SDS011;30583;48.714;9.386;2022-07-06T06:01:19;7.55;;;3.28;;
44850;SDS011;30583;48.714;9.386;2022-07-06T06:03:45;5.38;;;2.78;;
44850;SDS011;30583;48.714;9.386;2022-07-06T06:06:10;5.53;;;2.55;;
44850;SDS011;30583;48.714;9.386;2022-07-06T06:08:36;6.50;;;2.67;;
44850;SDS011;30583;48.714;9.386;2022-07-06T06:11:02;5.78;;;2.80;;
44850;SDS011;30583;48.714;9.386;2022-07-06T06:13:27;6.38;;;2.67;;
44850;SDS011;30583;48.714;9.386;2022-07-06T06:15:53;6.22;;;3.28;;
44850;SDS011;30583;48.714;9.386;2022-07-06T06:18:18;6.00;;;2.75;;
44850;SDS011;30583;48.714;9.386;2022-07-06T06:20:44;6.43;;;2.40;;
44850;SDS011;30583;48.714;9.386;2022-07-06T06:23:11;5.05;;;2.60;;
44850;SDS011;30583;48.714;9.386;2022-07-06T06:25:37;8.13;;;2.50;;
44850;SDS011;30583;48.714;9.386;2022-07-06T06:28:04;4.30;;;2.50;;
44850;SDS011;30583;48.714;9.386;2022-07-06T06:30:31;7.20;;;4.07;;
44850;SDS011;30583;48.714;9.386;2022-07-06T06:33:10;6.55;;;5.13;;
44850;SDS011;30583;48.714;9.386;2022-07-06T06:35:42;5.47;;;3.85;;
44850;SDS011;30583;48.714;9.386;2022-07-06T06:38:10;6.57;;;2.50;;
44850;SDS011;30583;48.714;9.386;2022-07-06T06:40:35;8.38;;;3.17;;
44850;SDS011;30583;48.714;9.386;2022-07-06T06:43:01;5.25;;;2.40;;
44850;SDS011;30583;48.714;9.386;2022-07-06T06:45:27;4.93;;;2.45;;
44850;SDS011;30583;48.714;9.386;2022-07-06T06:47:53;4.93;;;2.58;;
44850;SDS011;30583;48.714;9.386;2022-07-06T06:50:19;4.07;;;2.05;;
44850;SDS011;30583;48.714;9.386;2022-07-06T06:52:45;3.42;;;1.92;;
44850;SDS011;30583;48.714;9.386;2022-07-06T06:55:11;4.07;;;2.20;;
44850;SDS011;30583;48.714;9.386;2022-07-06T06:57:37;10.98;;;2.40;;
44850;SDS011;30583;48.714;9.386;2022-07-06T07:00:03;6.15;;;2.45;;
44850;SDS011;30583;48.714;9.386;2022-07-06T07:02:29;3.95;;;2.40;;
44850;SDS011;30583;48.714;9.386;2022-07-06T07:04:55;4.50;;;2.10;;
44850;SDS011;30583;48.714;9.386;2022-07-06T07:07:20;5.20;;;2.50;;
44850;SDS011;30583;48.714;9.386;2022-07-06T07:09:46;6.47;;;2.35;;
44850;SDS011;30583;48.714;9.386;2022-07-06T07:12:12;4.15;;;2.10;;
44850;SDS011;30583;48.714;9.386;2022-07-06T07:14:40;5.68;;;2.40;;
44850;SDS011;30583;48.714;9.386;2022-07-06T07:17:06;21.75;;;17.20;;
44850;SDS011;30583;48.714;9.386;2022-07-06T07:19:31;7.35;;;5.20;;
44850;SDS011;30583;48.714;9.386;2022-07-06T07:21:57;3.80;;;2.42;;
44850;SDS011;30583;48.714;9.386;2022-07-06T07:24:22;5.00;;;2.60;;
44850;SDS011;30583;48.714;9.386;2022-07-06T07:26:48;4.22;;;2.10;;
44850;SDS011;30583;48.714;9.386;2022-07-06T07:29:14;6.70;;;2.42;;
44850;SDS011;30583;48.714;9.386;2022-07-06T07:31:39;7.43;;;1.88;;
44850;SDS011;30583;48.714;9.386;2022-07-06T07:34:05;6.72;;;4.85;;
44850;SDS011;30583;48.714;9.386;2022-07-06T07:36:31;8.18;;;3.50;;
44850;SDS011;30583;48.714;9.386;2022-07-06T07:38:56;8.35;;;2.92;;
44850;SDS011;30583;48.714;9.386;2022-07-06T07:41:22;5.20;;;2.38;;
44850;SDS011;30583;48.714;9.386;2022-07-06T07:43:47;13.60;;;6.82;;
44850;SDS011;30583;48.714;9.386;2022-07-06T07:46:13;8.13;;;2.80;;
44850;SDS011;30583;48.714;9.386;2022-07-06T07:48:39;10.40;;;2.58;;
44850;SDS011;30583;48.714;9.386;2022-07-06T07:51:05;6.45;;;1.92;;
44850;SDS011;30583;48.714;9.386;2022-07-06T07:53:30;6.70;;;4.38;;
44850;SDS011;30583;48.714;9.386;2022-07-06T07:55:56;11.45;;;6.55;;
44850;SDS011;30583;48.714;9.386;2022-07-06T07:58:21;7.82;;;5.38;;
44850;SDS011;30583;48.714;9.386;2022-07-06T08:00:47;8.13;;;3.38;;
44850;SDS011;30583;48.714;9.386;2022-07-06T08:03:13;4.40;;;2.70;;
44850;SDS011;30583;48.714;9.386;2022-07-06T08:05:38;6.80;;;2.67;;
44850;SDS011;30583;48.714;9.386;2022-07-06T08:08:04;4.70;;;2.50;;
44850;SDS011;30583;48.714;9.386;2022-07-06T08:10:30;3.58;;;2.13;;
44850;SDS011;30583;48.714;9.386;2022-07-06T08:12:56;6.20;;;2.53;;
44850;SDS011;30583;48.714;9.386;2022-07-06T08:15:21;6.75;;;2.70;;
44850;SDS011;30583;48.714;9.386;2022-07-06T08:17:47;4.25;;;2.45;;
44850;SDS011;30583;48.714;9.386;2022-07-06T08:20:13;4.68;;;2.42;;
44850;SDS011;30583;48.714;9.386;2022-07-06T08:22:38;4.47;;;2.67;;
44850;SDS011;30583;48.714;9.386;2022-07-06T08:25:04;3.78;;;2.50;;
44850;SDS011;30583;48.714;9.386;2022-07-06T08:27:30;6.25;;;2.67;;
44850;SDS011;30583;48.714;9.386;2022-07-06T08:29:56;2.90;;;1.85;;
44850;SDS011;30583;48.714;9.386;2022-07-06T08:32:22;4.82;;;2.13;;
44850;SDS011;30583;48.714;9.386;2022-07-06T08:34:48;6.28;;;2.20;;
44850;SDS011;30583;48.714;9.386;2022-07-06T08:37:13;5.45;;;2.30;;
44850;SDS011;30583;48.714;9.386;2022-07-06T08:39:39;6.43;;;2.20;;
44850;SDS011;30583;48.714;9.386;2022-07-06T08:42:05;5.50;;;2.20;;
44850;SDS011;30583;48.714;9.386;2022-07-06T08:44:35;7.68;;;2.50;;
44850;SDS011;30583;48.714;9.386;2022-07-06T08:47:02;7.63;;;6.15;;
44850;SDS011;30583;48.714;9.386;2022-07-06T08:49:30;5.10;;;2.78;;
44850;SDS011;30583;48.714;9.386;2022-07-06T08:51:57;4.78;;;2.70;;
44850;SDS011;30583;48.714;9.386;2022-07-06T08:54:23;3.75;;;2.00;;
44850;SDS011;30583;48.714;9.386;2022-07-06T08:56:49;4.47;;;2.53;;
44850;SDS011;30583;48.714;9.386;2022-07-06T08:59:16;6.88;;;2.25;;
44850;SDS011;30583;48.714;9.386;2022-07-06T09:01:41;4.13;;;2.40;;
44850;SDS011;30583;48.714;9.386;2022-07-06T09:04:09;4.10;;;2.50;;
44850;SDS011;30583;48.714;9.386;2022-07-06T09:06:37;3.88;;;2.20;;
44850;SDS011;30583;48.714;9.386;2022-07-06T09:09:07;6.25;;;2.50;;
44850;SDS011;30583;48.714;9.386;2022-07-06T09:11:34;6.75;;;2.40;;
44850;SDS011;30583;48.714;9.386;2022-07-06T09:14:01;6.32;;;2.30;;
44850;SDS011;30583;48.714;9.386;2022-07-06T09:16:27;5.65;;;2.25;;
44850;SDS011;30583;48.714;9.386;2022-07-06T09:18:54;5.43;;;2.33;;
44850;SDS011;30583;48.714;9.386;2022-07-06T09:21:23;6.10;;;2.33;;
44850;SDS011;30583;48.714;9.386;2022-07-06T09:23:54;4.70;;;2.20;;
44850;SDS011;30583;48.714;9.386;2022-07-06T09:26:21;7.30;;;2.80;;
44850;SDS011;30583;48.714;9.386;2022-07-06T09:28:47;7.30;;;2.80;;
44850;SDS011;30583;48.714;9.386;2022-07-06T09:31:13;5.50;;;2.97;;
44850;SDS011;30583;48.714;9.386;2022-07-06T09:33:38;6.00;;;2.95;;
44850;SDS011;30583;48.714;9.386;2022-07-06T09:36:17;7.53;;;2.95;;
44850;SDS011;30583;48.714;9.386;2022-07-06T09:39:14;7.32;;;4.00;;
44850;SDS011;30583;48.714;9.386;2022-07-06T09:41:42;6.95;;;2.45;;
44850;SDS011;30583;48.714;9.386;2022-07-06T09:44:09;5.80;;;2.50;;
44850;SDS011;30583;48.714;9.386;2022-07-06T09:46:41;9.02;;;3.22;;
44850;SDS011;30583;48.714;9.386;2022-07-06T09:49:08;6.53;;;2.60;;
44850;SDS011;30583;48.714;9.386;2022-07-06T09:51:37;5.70;;;2.47;;
44850;SDS011;30583;48.714;9.386;2022-07-06T09:54:05;10.60;;;2.65;;
44850;SDS011;30583;48.714;9.386;2022-07-06T09:56:39;6.28;;;2.85;;
44850;SDS011;30583;48.714;9.386;2022-07-06T09:59:09;5.85;;;2.67;;
44850;SDS011;30583;48.714;9.386;2022-07-06T10:01:40;6.53;;;2.38;;
44850;SDS011;30583;48.714;9.386;2022-07-06T10:04:07;5.13;;;2.42;;
44850;SDS011;30583;48.714;9.386;2022-07-06T10:06:33;4.30;;;2.60;;
44850;SDS011;30583;48.714;9.386;2022-07-06T10:08:59;8.15;;;4.05;;
44850;SDS011;30583;48.714;9.386;2022-07-06T10:11:26;6.88;;;4.00;;
44850;SDS011;30583;48.714;9.386;2022-07-06T10:13:54;5.40;;;2.97;;
44850;SDS011;30583;48.714;9.386;2022-07-06T10:16:24;5.60;;;2.78;;
44850;SDS011;30583;48.714;9.386;2022-07-06T10:18:51;6.85;;;2.60;;
44850;SDS011;30583;48.714;9.386;2022-07-06T10:21:21;7.93;;;2.22;;
44850;SDS011;30583;48.714;9.386;2022-07-06T10:23:47;4.10;;;2.30;;
44850;SDS011;30583;48.714;9.386;2022-07-06T10:26:15;9.40;;;2.70;;
44850;SDS011;30583;48.714;9.386;2022-07-06T10:28:42;4.93;;;2.30;;
44850;SDS011;30583;48.714;9.386;2022-07-06T10:31:08;7.03;;;2.40;;
44850;SDS011;30583;48.714;9.386;2022-07-06T10:33:34;5.68;;;2.70;;
44850;SDS011;30583;48.714;9.386;2022-07-06T10:36:01;6.68;;;2.50;;
44850;SDS011;30583;48.714;9.386;2022-07-06T10:38:31;8.20;;;3.20;;
44850;SDS011;30583;48.714;9.386;2022-07-06T10:41:05;9.57;;;5.78;;
44850;SDS011;30583;48.714;9.386;2022-07-06T10:43:44;6.35;;;2.45;;
44850;SDS011;30583;48.714;9.386;2022-07-06T10:46:11;4.07;;;2.10;;
44850;SDS011;30583;48.714;9.386;2022-07-06T10:48:40;4.80;;;2.55;;
44850;SDS011;30583;48.714;9.386;2022-07-06T10:51:07;8.07;;;2.30;;
44850;SDS011;30583;48.714;9.386;2022-07-06T10:53:37;7.95;;;2.53;;
44850;SDS011;30583;48.714;9.386;2022-07-06T10:56:07;7.05;;;2.28;;
44850;SDS011;30583;48.714;9.386;2022-07-06T10:58:52;8.02;;;2.30;;
44850;SDS011;30583;48.714;9.386;2022-07-06T11:01:19;5.82;;;2.97;;
44850;SDS011;30583;48.714;9.386;2022-07-06T11:04:04;7.47;;;2.22;;
44850;SDS011;30583;48.714;9.386;2022-07-06T11:06:32;5.10;;;2.08;;
44850;SDS011;30583;48.714;9.386;2022-07-06T11:16:28;5.53;;;2.03;;
44850;SDS011;30583;48.714;9.386;2022-07-06T11:19:06;7.63;;;2.22;;
44850;SDS011;30583;48.714;9.386;2022-07-06T11:26:53;4.45;;;1.80;;
44850;SDS011;30583;48.714;9.386;2022-07-06T11:29:21;5.00;;;2.30;;
44850;SDS011;30583;48.714;9.386;2022-07-06T11:31:49;6.07;;;2.47;;
44850;SDS011;30583;48.714;9.386;2022-07-06T11:34:21;7.80;;;2.55;;
44850;SDS011;30583;48.714;9.386;2022-07-06T11:37:33;6.82;;;1.98;;
44850;SDS011;30583;48.714;9.386;2022-07-06T11:39:44;5.65;;;1.92;;
44850;SDS011;30583;48.714;9.386;2022-07-06T11:42:11;8.55;;;2.00;;
44850;SDS011;30583;48.714;9.386;2022-07-06T11:44:38;6.25;;;2.17;;
44850;SDS011;30583;48.714;9.386;2022-07-06T11:47:05;10.52;;;2.28;;
44850;SDS011;30583;48.714;9.386;2022-07-06T11:49:32;7.22;;;2.17;;
44850;SDS011;30583;48.714;9.386;2022-07-06T11:51:59;6.70;;;2.30;;
44850;SDS011;30583;48.714;9.386;2022-07-06T11:54:25;3.90;;;1.80;;
44850;SDS011;30583;48.714;9.386;2022-07-06T11:59:23;6.68;;;2.17;;
44850;SDS011;30583;48.714;9.386;2022-07-06T12:01:50;8.18;;;2.00;;
44850;SDS011;30583;48.714;9.386;2022-07-06T12:04:30;5.15;;;1.88;;
44850;SDS011;30583;48.714;9.386;2022-07-06T12:07:00;6.40;;;1.85;;
44850;SDS011;30583;48.714;9.386;2022-07-06T12:09:33;5.72;;;1.92;;
44850;SDS011;30583;48.714;9.386;2022-07-06T12:12:00;10.43;;;2.00;;
44850;SDS011;30583;48.714;9.386;2022-07-06T12:14:32;2.85;;;1.75;;
44850;SDS011;30583;48.714;9.386;2022-07-06T12:17:06;5.03;;;2.33;;
44850;SDS011;30583;48.714;9.386;2022-07-06T12:19:34;6.88;;;2.63;;
44850;SDS011;30583;48.714;9.386;2022-07-06T12:22:00;7.53;;;2.03;;
44850;SDS011;30583;48.714;9.386;2022-07-06T12:24:27;3.58;;;1.90;;
44850;SDS011;30583;48.714;9.386;2022-07-06T12:26:55;7.03;;;2.67;;
44850;SDS011;30583;48.714;9.386;2022-07-06T12:29:21;8.70;;;2.22;;
44850;SDS011;30583;48.714;9.386;2022-07-06T12:34:18;3.47;;;1.80;;
44850;SDS011;30583;48.714;9.386;2022-07-06T12:37:03;9.80;;;2.78;;
44850;SDS011;30583;48.714;9.386;2022-07-06T12:39:32;5.65;;;2.15;;
44850;SDS011;30583;48.714;9.386;2022-07-06T12:42:05;4.35;;;2.33;;
44850;SDS011;30583;48.714;9.386;2022-07-06T12:44:31;6.38;;;2.30;;
44850;SDS011;30583;48.714;9.386;2022-07-06T12:47:04;7.95;;;2.05;;
44850;SDS011;30583;48.714;9.386;2022-07-06T12:49:31;4.45;;;2.25;;
44850;SDS011;30583;48.714;9.386;2022-07-06T12:52:03;6.35;;;2.25;;
44850;SDS011;30583;48.714;9.386;2022-07-06T12:54:41;3.88;;;2.10;;
44850;SDS011;30583;48.714;9.386;2022-07-06T12:57:12;10.65;;;2.42;;
44850;SDS011;30583;48.714;9.386;2022-07-06T13:02:26;8.90;;;2.40;;
44850;SDS011;30583;48.714;9.386;2022-07-06T13:05:15;6.07;;;2.33;;
44850;SDS011;30583;48.714;9.386;2022-07-06T13:07:45;7.85;;;2.72;;
44850;SDS011;30583;48.714;9.386;2022-07-06T13:10:12;8.05;;;2.28;;
44850;SDS011;30583;48.714;9.386;2022-07-06T13:12:39;7.75;;;2.67;;
44850;SDS011;30583;48.714;9.386;2022-07-06T13:15:06;10.48;;;5.15;;
44850;SDS011;30583;48.714;9.386;2022-07-06T13:17:32;7.93;;;5.03;;
44850;SDS011;30583;48.714;9.386;2022-07-06T13:19:58;5.90;;;2.40;;
44850;SDS011;30583;48.714;9.386;2022-07-06T13:22:24;5.13;;;2.60;;
44850;SDS011;30583;48.714;9.386;2022-07-06T13:24:50;6.25;;;2.13;;
44850;SDS011;30583;48.714;9.386;2022-07-06T13:27:16;7.90;;;2.67;;
44850;SDS011;30583;48.714;9.386;2022-07-06T13:29:42;7.25;;;2.40;;
44850;SDS011;30583;48.714;9.386;2022-07-06T13:32:08;5.28;;;2.50;;
44850;SDS011;30583;48.714;9.386;2022-07-06T13:34:33;4.78;;;2.20;;
44850;SDS011;30583;48.714;9.386;2022-07-06T13:37:02;5.47;;;2.50;;
44850;SDS011;30583;48.714;9.386;2022-07-06T13:39:29;5.75;;;2.45;;
44850;SDS011;30583;48.714;9.386;2022-07-06T13:41:55;7.60;;;2.60;;
44850;SDS011;30583;48.714;9.386;2022-07-06T13:44:22;8.70;;;2.42;;
44850;SDS011;30583;48.714;9.386;2022-07-06T13:46:47;7.43;;;2.35;;
44850;SDS011;30583;48.714;9.386;2022-07-06T13:49:14;6.47;;;2.38;;
44850;SDS011;30583;48.714;9.386;2022-07-06T13:51:40;5.93;;;2.30;;
44850;SDS011;30583;48.714;9.386;2022-07-06T13:54:05;6.68;;;2.03;;
44850;SDS011;30583;48.714;9.386;2022-07-06T13:56:31;6.72;;;2.10;;
44850;SDS011;30583;48.714;9.386;2022-07-06T13:58:57;8.32;;;2.33;;
44850;SDS011;30583;48.714;9.386;2022-07-06T14:01:23;6.00;;;2.00;;
44850;SDS011;30583;48.714;9.386;2022-07-06T14:03:49;4.25;;;1.80;;
44850;SDS011;30583;48.714;9.386;2022-07-06T14:06:15;7.50;;;2.30;;
44850;SDS011;30583;48.714;9.386;2022-07-06T14:08:41;8.32;;;2.65;;
44850;SDS011;30583;48.714;9.386;2022-07-06T14:11:08;7.32;;;2.38;;
44850;SDS011;30583;48.714;9.386;2022-07-06T14:13:34;4.70;;;2.00;;
44850;SDS011;30583;48.714;9.386;2022-07-06T14:16:01;5.00;;;2.63;;
44850;SDS011;30583;48.714;9.386;2022-07-06T14:18:27;4.97;;;2.25;;
44850;SDS011;30583;48.714;9.386;2022-07-06T14:20:53;4.40;;;2.20;;
44850;SDS011;30583;48.714;9.386;2022-07-06T14:23:19;4.40;;;1.95;;
44850;SDS011;30583;48.714;9.386;2022-07-06T14:25:46;7.28;;;1.77;;
44850;SDS011;30583;48.714;9.386;2022-07-06T14:28:13;7.95;;;2.15;;
44850;SDS011;30583;48.714;9.386;2022-07-06T14:30:40;5.38;;;1.92;;
44850;SDS011;30583;48.714;9.386;2022-07-06T14:33:07;3.85;;;2.00;;
44850;SDS011;30583;48.714;9.386;2022-07-06T14:35:37;5.00;;;1.90;;
44850;SDS011;30583;48.714;9.386;2022-07-06T14:38:04;7.75;;;1.85;;
44850;SDS011;30583;48.714;9.386;2022-07-06T14:40:31;7.18;;;2.00;;
44850;SDS011;30583;48.714;9.386;2022-07-06T14:42:57;2.72;;;1.88;;
44850;SDS011;30583;48.714;9.386;2022-07-06T14:45:23;6.95;;;2.00;;
44850;SDS011;30583;48.714;9.386;2022-07-06T14:47:49;4.72;;;1.92;;
44850;SDS011;30583;48.714;9.386;2022-07-06T14:50:15;7.35;;;2.25;;
44850;SDS011;30583;48.714;9.386;2022-07-06T14:52:42;6.57;;;2.35;;
44850;SDS011;30583;48.714;9.386;2022-07-06T14:55:07;5.28;;;2.33;;
44850;SDS011;30583;48.714;9.386;2022-07-06T14:57:33;6.07;;;2.00;;
44850;SDS011;30583;48.714;9.386;2022-07-06T14:59:59;7.40;;;2.38;;
44850;SDS011;30583;48.714;9.386;2022-07-06T15:02:24;6.50;;;2.00;;
44850;SDS011;30583;48.714;9.386;2022-07-06T15:04:50;3.60;;;1.70;;
44850;SDS011;30583;48.714;9.386;2022-07-06T15:07:16;2.22;;;1.48;;
44850;SDS011;30583;48.714;9.386;2022-07-06T15:09:41;6.72;;;3.63;;